Time;durP1;ratioP1;P1;durP2;ratioP2;P2;SDS_P1;SDS_P2;PMS_P1;PMS_P2;Temp;Humidity;BMP_temperature;BMP_pressure;BME280_temperature;BME280_humidity;BME280_pressure;Samples;Min_cycle;Max_cycle;Signal;HPM_P1;HPM_P2
2022/01/26 00:05:43;;;;;;;;;;;4.00;98.10;;;;;;5046655;28;19913;-69
2022/01/26 00:06:26;;;;;;;;;;;4.00;98.10;;;;;;5044581;28;19927;-69
2022/01/26 00:08:51;;;;;;;;;;;4.00;98.10;;;;;;5045029;28;19917;-69
2022/01/26 00:11:17;;;;;;;;;;;4.00;98.10;;;;;;5042188;28;19923;-70
2022/01/26 00:13:42;;;;;;;;;;;4.00;98.10;;;;;;5044478;28;19927;-69
2022/01/26 00:16:15;;;;;;;;;;;4.00;98.10;;;;;;5042681;28;19913;-69
2022/01/26 00:18:40;;;;;;;;;;;4.00;98.10;;;;;;5043338;28;21433;-69
2022/01/26 00:21:13;;;;;;;;;;;4.00;98.00;;;;;;5046101;28;19920;-69
2022/01/26 00:26:30;;;;;;;;;;;4.00;98.00;;;;;;5049279;28;20376;-69
2022/01/26 00:29:10;;;;;;;;;;;4.00;98.00;;;;;;5025575;28;19944;-69
2022/01/26 00:39:58;;;;;;;;;;;4.00;98.00;;;;;;5043275;28;20000;-69
2022/01/26 00:42:23;;;;;;;;;;;4.00;98.00;;;;;;5047792;28;19912;-69
2022/01/26 00:44:50;;;;;;;;;;;4.00;98.00;;;;;;5044906;28;20609;-69
2022/01/26 00:47:16;;;;;;;;;;;4.00;98.00;;;;;;5043168;28;19928;-70
2022/01/26 00:49:41;;;;;;;;;;;4.00;98.00;;;;;;5042261;28;19920;-69
2022/01/26 00:52:11;;;;;;;;;;;4.00;98.00;;;;;;5043424;28;19933;-69
2022/01/26 00:54:37;;;;;;;;;;;4.00;98.00;;;;;;5039753;28;20361;-69
2022/01/26 00:57:02;;;;;;;;;;;4.00;98.00;;;;;;5032583;28;19917;-69
2022/01/26 00:59:28;;;;;;;;;;;4.00;98.00;;;;;;5046475;28;19986;-69
2022/01/26 01:01:55;;;;;;;;;;;4.00;98.00;;;;;;5031970;28;20018;-70
2022/01/26 01:04:21;;;;;;;;;;;4.00;98.00;;;;;;5046080;28;19967;-69
2022/01/26 01:06:52;;;;;;;;;;;4.00;98.00;;;;;;5048716;28;19913;-70
2022/01/26 01:09:20;;;;;;;;;;;4.00;98.00;;;;;;5051806;28;19952;-70
2022/01/26 01:11:46;;;;;;;;;;;4.00;98.00;;;;;;5048898;28;20324;-69
2022/01/26 01:14:11;;;;;;;;;;;4.00;98.00;;;;;;5030321;28;19920;-69
2022/01/26 01:16:37;;;;;;;;;;;3.90;98.00;;;;;;5046881;28;19963;-69
2022/01/26 01:19:13;;;;;;;;;;;4.00;98.00;;;;;;5047669;28;20643;-69
2022/01/26 01:27:25;;;;;;;;;;;;;;;;;;;;;
2022/01/26 01:29:42;;;;;;;;;;;4.00;98.00;;;;;;5046233;28;19966;-69
2022/01/26 01:32:26;;;;;;;;;;;4.00;98.00;;;;;;5049616;28;20513;-69
2022/01/26 01:34:51;;;;;;;;;;;3.90;98.00;;;;;;5042580;28;19924;-69
2022/01/26 01:37:17;;;;;;;;;;;4.00;98.00;;;;;;5045508;28;19916;-69
2022/01/26 01:39:43;;;;;;;;;;;3.90;98.00;;;;;;5045118;28;20385;-69
2022/01/26 01:42:09;;;;;;;;;;;3.90;97.90;;;;;;5047801;28;19974;-69
2022/01/26 01:44:35;;;;;;;;;;;3.90;98.00;;;;;;5048121;28;20487;-69
2022/01/26 01:47:00;;;;;;;;;;;3.90;98.00;;;;;;5044245;28;20027;-69
2022/01/26 01:49:26;;;;;;;;;;;4.00;98.00;;;;;;5046559;28;19919;-69
2022/01/26 01:51:56;;;;;;;;;;;3.90;98.00;;;;;;5059549;28;19948;-69
2022/01/26 01:54:22;;;;;;;;;;;3.90;98.00;;;;;;5047287;28;19963;-69
2022/01/26 01:56:52;;;;;;;;;;;4.00;97.90;;;;;;5045036;28;19916;-69
2022/01/26 01:59:18;;;;;;;;;;;3.90;97.90;;;;;;5045862;28;19913;-70
2022/01/26 02:01:44;;;;;;;;;;;3.90;97.90;;;;;;5044540;28;19921;-69
2022/01/26 02:04:09;;;;;;;;;;;3.90;98.00;;;;;;5044091;28;20267;-69
2022/01/26 02:06:35;;;;;;;;;;;3.90;97.90;;;;;;5045140;28;20126;-69
2022/01/26 02:09:01;;;;;;;;;;;3.90;97.90;;;;;;5049343;28;19916;-69
2022/01/26 02:11:26;;;;;;;;;;;3.90;97.90;;;;;;5046576;28;19912;-69
2022/01/26 02:14:07;;;;;;;;;;;3.90;97.90;;;;;;5049986;28;19916;-69
2022/01/26 02:16:46;;;;;;;;;;;3.90;97.90;;;;;;5043976;28;19924;-69
2022/01/26 02:49:17;;;;;;;;;;;3.90;97.90;;;;;;5046177;28;19920;-69
2022/01/26 03:05:04;;;;;;;;;;;3.90;97.90;;;;;;5047884;28;19924;-69
2022/01/26 03:10:39;;;;;;;;;;;3.90;97.90;;;;;;5023121;28;20011;-69
2022/01/26 03:13:19;;;;;;;;;;;3.90;97.90;;;;;;5041830;28;20492;-69
2022/01/26 03:15:57;;;;;;;;;;;3.90;97.90;;;;;;5047998;28;19936;-69
2022/01/26 03:21:04;;;;;;;;;;;3.90;97.90;;;;;;5049861;28;19952;-69
2022/01/26 03:29:11;;;;;;;;;;;3.90;97.90;;;;;;5042957;28;19971;-69
2022/01/26 03:34:16;;;;;;;;;;;3.90;97.90;;;;;;5043586;28;19975;-69
2022/01/26 03:36:52;;;;;;;;;;;3.90;97.90;;;;;;5046301;28;20020;-69
2022/01/26 03:39:20;;;;;;;;;;;3.90;97.90;;;;;;5043762;28;19960;-69
2022/01/26 03:41:48;;;;;;;;;;;3.80;97.80;;;;;;5041213;28;19923;-69
2022/01/26 03:44:14;;;;;;;;;;;3.80;97.90;;;;;;5042051;28;19917;-69
2022/01/26 03:46:40;;;;;;;;;;;3.90;97.90;;;;;;5050419;28;20648;-69
2022/01/26 03:49:06;;;;;;;;;;;3.90;97.90;;;;;;5045349;28;19920;-69
2022/01/26 03:51:31;;;;;;;;;;;3.80;97.90;;;;;;5043167;28;19924;-69
2022/01/26 03:53:57;;;;;;;;;;;3.80;97.90;;;;;;5042962;28;19951;-69
2022/01/26 03:56:22;;;;;;;;;;;3.80;97.80;;;;;;5043984;28;19913;-69
2022/01/26 03:58:48;;;;;;;;;;;3.80;97.80;;;;;;5043370;28;19971;-69
2022/01/26 04:01:13;;;;;;;;;;;3.80;97.80;;;;;;5042338;28;19916;-69
2022/01/26 04:03:39;;;;;;;;;;;3.80;97.80;;;;;;5044469;28;19916;-69
2022/01/26 04:06:05;;;;;;;;;;;3.80;97.80;;;;;;5025273;28;20370;-69
2022/01/26 04:08:32;;;;;;;;;;;3.80;98.10;;;;;;5046695;28;19920;-69
2022/01/26 04:13:42;;;;;;;;;;;3.80;97.80;;;;;;5045802;28;19927;-69
2022/01/26 04:16:08;;;;;;;;;;;3.80;97.80;;;;;;5041006;28;19917;-69
2022/01/26 04:18:37;;;;;;;;;;;3.80;97.80;;;;;;5042967;28;20023;-69
2022/01/26 04:21:29;;;;;;;;;;;3.80;97.80;;;;;;5041143;28;19990;-69
2022/01/26 04:24:03;;;;;;;;;;;3.80;98.10;;;;;;5042238;28;19921;-69
2022/01/26 04:26:35;;;;;;;;;;;3.80;97.80;;;;;;5040720;28;20405;-69
2022/01/26 04:29:09;;;;;;;;;;;3.80;97.80;;;;;;5044240;28;19927;-69
2022/01/26 04:31:35;;;;;;;;;;;3.80;97.80;;;;;;5039965;28;19920;-69
2022/01/26 04:34:00;;;;;;;;;;;3.80;97.80;;;;;;5043286;28;20386;-69
2022/01/26 04:36:35;;;;;;;;;;;3.80;98.10;;;;;;5040206;28;20376;-69
2022/01/26 04:39:06;;;;;;;;;;;3.80;97.80;;;;;;5047054;28;19916;-69
2022/01/26 04:44:04;;;;;;;;;;;3.80;97.80;;;;;;5045072;28;20007;-69
2022/01/26 04:46:30;;;;;;;;;;;3.80;97.70;;;;;;5042559;28;19917;-69
2022/01/26 04:48:55;;;;;;;;;;;3.80;97.80;;;;;;5046152;28;19923;-70
2022/01/26 04:51:21;;;;;;;;;;;3.80;97.80;;;;;;5046247;28;20344;-69
2022/01/26 04:53:46;;;;;;;;;;;3.80;97.80;;;;;;5044204;28;19913;-69
2022/01/26 04:56:13;;;;;;;;;;;3.80;97.80;;;;;;5042972;28;19917;-69
2022/01/26 04:58:39;;;;;;;;;;;3.70;97.70;;;;;;5042778;28;19920;-69
2022/01/26 05:01:05;;;;;;;;;;;3.80;97.70;;;;;;5043564;28;19919;-69
2022/01/26 05:03:30;;;;;;;;;;;3.70;97.70;;;;;;5039100;28;19917;-69
2022/01/26 05:05:56;;;;;;;;;;;3.80;97.70;;;;;;5044329;28;19960;-69
2022/01/26 05:08:21;;;;;;;;;;;3.80;97.70;;;;;;5040745;28;20024;-69
2022/01/26 05:10:46;;;;;;;;;;;3.80;97.80;;;;;;5038905;28;20484;-69
2022/01/26 05:13:14;;;;;;;;;;;3.80;97.80;;;;;;5039770;28;19970;-69
2022/01/26 05:15:40;;;;;;;;;;;3.70;97.70;;;;;;5040783;28;19913;-69
2022/01/26 05:18:06;;;;;;;;;;;3.80;97.70;;;;;;5040017;28;19924;-70
2022/01/26 05:20:32;;;;;;;;;;;3.70;97.70;;;;;;5043462;28;19927;-69
2022/01/26 05:22:58;;;;;;;;;;;3.80;97.70;;;;;;5059695;28;19970;-70
2022/01/26 05:25:24;;;;;;;;;;;3.80;97.70;;;;;;5020768;28;20549;-69
2022/01/26 05:27:49;;;;;;;;;;;3.70;97.70;;;;;;5041777;28;19940;-69
2022/01/26 05:30:15;;;;;;;;;;;3.80;97.70;;;;;;5044395;28;19919;-69
2022/01/26 05:32:40;;;;;;;;;;;3.70;97.70;;;;;;5041734;28;19925;-69
2022/01/26 05:35:06;;;;;;;;;;;3.70;97.70;;;;;;5039769;28;19917;-69
2022/01/26 05:37:31;;;;;;;;;;;3.70;97.70;;;;;;5044361;28;19995;-69
2022/01/26 05:39:57;;;;;;;;;;;3.70;97.70;;;;;;5043692;28;19917;-69
2022/01/26 05:42:23;;;;;;;;;;;3.70;97.70;;;;;;5045564;28;19917;-69
2022/01/26 05:44:49;;;;;;;;;;;3.70;97.70;;;;;;5043212;28;19917;-69
2022/01/26 05:47:18;;;;;;;;;;;3.70;97.70;;;;;;5022570;28;20012;-69
2022/01/26 05:49:44;;;;;;;;;;;3.70;97.60;;;;;;5025397;28;20544;-70
2022/01/26 05:52:10;;;;;;;;;;;3.70;97.70;;;;;;5045172;28;19913;-69
2022/01/26 05:54:35;;;;;;;;;;;3.70;97.70;;;;;;5041744;28;19917;-69
2022/01/26 05:57:01;;;;;;;;;;;3.70;97.70;;;;;;5046529;28;19917;-69
2022/01/26 05:59:27;;;;;;;;;;;3.70;97.70;;;;;;5044843;28;19916;-69
2022/01/26 06:01:52;;;;;;;;;;;3.70;97.70;;;;;;5043215;28;19925;-69
2022/01/26 06:04:18;;;;;;;;;;;3.70;97.70;;;;;;5043779;28;19924;-69
2022/01/26 06:06:44;;;;;;;;;;;3.70;97.70;;;;;;5047618;28;19927;-70
2022/01/26 06:09:09;;;;;;;;;;;3.70;97.70;;;;;;5051496;28;20282;-70
2022/01/26 06:11:35;;;;;;;;;;;3.70;97.70;;;;;;5043935;28;19913;-69
2022/01/26 06:14:00;;;;;;;;;;;3.70;97.50;;;;;;5045713;28;19924;-69
2022/01/26 06:16:26;;;;;;;;;;;3.70;97.60;;;;;;5061003;28;20409;-69
2022/01/26 06:18:51;;;;;;;;;;;3.70;97.70;;;;;;5046687;28;20047;-69
2022/01/26 06:21:17;;;;;;;;;;;3.70;97.70;;;;;;5043889;28;20012;-69
2022/01/26 06:23:42;;;;;;;;;;;3.70;97.70;;;;;;5055885;28;20719;-70
2022/01/26 06:26:08;;;;;;;;;;;3.70;97.70;;;;;;5044002;28;19944;-70
2022/01/26 06:28:34;;;;;;;;;;;3.70;97.70;;;;;;5050070;28;19974;-69
2022/01/26 06:31:02;;;;;;;;;;;3.70;97.70;;;;;;5024157;28;20360;-69
2022/01/26 06:33:28;;;;;;;;;;;3.70;97.60;;;;;;5053288;28;19924;-69
2022/01/26 06:35:56;;;;;;;;;;;3.70;97.60;;;;;;5026601;28;19986;-69
2022/01/26 06:38:24;;;;;;;;;;;3.70;97.60;;;;;;5046392;28;19924;-69
2022/01/26 06:40:50;;;;;;;;;;;3.70;97.60;;;;;;5047602;28;19917;-69
2022/01/26 06:43:16;;;;;;;;;;;3.70;97.60;;;;;;5047545;28;19936;-69
2022/01/26 06:45:49;;;;;;;;;;;3.70;97.60;;;;;;5046257;28;20679;-69
2022/01/26 06:50:43;;;;;;;;;;;3.70;97.60;;;;;;5054432;28;20761;-69
2022/01/26 06:53:09;;;;;;;;;;;3.70;97.60;;;;;;5041737;28;19917;-69
2022/01/26 06:55:37;;;;;;;;;;;3.70;97.60;;;;;;5047216;28;19932;-69
2022/01/26 06:58:03;;;;;;;;;;;3.70;97.50;;;;;;5043884;28;19913;-69
2022/01/26 07:00:29;;;;;;;;;;;3.70;97.60;;;;;;5049338;28;20523;-69
2022/01/26 07:02:54;;;;;;;;;;;3.70;97.60;;;;;;5043020;28;20007;-69
2022/01/26 07:05:21;;;;;;;;;;;3.70;97.60;;;;;;5041865;28;20435;-69
2022/01/26 07:07:46;;;;;;;;;;;3.70;97.60;;;;;;5043329;28;19913;-69
2022/01/26 07:10:12;;;;;;;;;;;3.70;97.60;;;;;;5063556;28;20250;-70
2022/01/26 07:12:38;;;;;;;;;;;3.70;97.60;;;;;;5044585;28;19928;-69
2022/01/26 07:23:16;;;;;;;;;;;3.70;97.60;;;;;;5041621;28;19923;-69
2022/01/26 07:25:42;;;;;;;;;;;3.70;97.60;;;;;;5050303;28;19917;-69
2022/01/26 07:28:08;;;;;;;;;;;3.70;97.60;;;;;;5043906;28;19999;-69
2022/01/26 07:30:37;;;;;;;;;;;3.60;97.60;;;;;;5046066;28;19920;-69
2022/01/26 07:33:03;;;;;;;;;;;3.70;97.60;;;;;;5038737;28;20042;-70
2022/01/26 07:35:29;;;;;;;;;;;3.60;97.50;;;;;;5044233;28;20361;-69
2022/01/26 07:37:58;;;;;;;;;;;3.60;97.60;;;;;;5049634;28;20501;-69
2022/01/26 07:40:23;;;;;;;;;;;3.60;97.50;;;;;;5043620;28;19927;-69
2022/01/26 07:42:49;;;;;;;;;;;3.60;97.50;;;;;;5053906;28;19924;-69
2022/01/26 07:45:14;;;;;;;;;;;3.60;97.50;;;;;;5025883;28;20006;-69
2022/01/26 07:47:40;;;;;;;;;;;3.60;97.50;;;;;;5051027;28;19963;-69
2022/01/26 07:50:08;;;;;;;;;;;3.60;97.50;;;;;;5041907;28;19923;-69
2022/01/26 07:52:38;;;;;;;;;;;3.60;97.50;;;;;;5043395;28;19931;-69
2022/01/26 07:55:04;;;;;;;;;;;3.60;97.50;;;;;;5040912;28;19931;-69
2022/01/26 07:57:30;;;;;;;;;;;3.60;97.50;;;;;;5045369;28;19909;-69
2022/01/26 07:59:55;;;;;;;;;;;3.60;97.50;;;;;;5040814;28;20673;-69
2022/01/26 08:02:21;;;;;;;;;;;3.60;97.40;;;;;;5044371;28;19955;-69
2022/01/26 08:04:47;;;;;;;;;;;3.60;97.50;;;;;;5042492;28;19967;-69
2022/01/26 08:07:13;;;;;;;;;;;3.60;97.50;;;;;;5050558;28;19912;-69
2022/01/26 08:09:43;;;;;;;;;;;3.60;97.50;;;;;;5045955;28;20014;-69
2022/01/26 08:12:12;;;;;;;;;;;3.60;97.50;;;;;;5046448;28;20350;-69
2022/01/26 08:14:38;;;;;;;;;;;3.60;97.50;;;;;;5045049;28;19917;-69
2022/01/26 08:17:05;;;;;;;;;;;3.60;97.40;;;;;;5047052;28;19923;-69
2022/01/26 08:19:30;;;;;;;;;;;3.60;97.50;;;;;;5049852;28;20281;-69
2022/01/26 08:22:00;;;;;;;;;;;3.60;97.50;;;;;;5059142;28;19913;-69
2022/01/26 08:24:25;;;;;;;;;;;3.60;97.50;;;;;;5044320;28;19925;-70
2022/01/26 08:26:51;;;;;;;;;;;3.60;97.50;;;;;;5041776;28;20715;-69
2022/01/26 08:29:30;;;;;;;;;;;3.60;97.50;;;;;;5050515;28;20369;-69
2022/01/26 08:31:56;;;;;;;;;;;3.60;97.80;;;;;;5040770;28;19924;-69
2022/01/26 08:34:22;;;;;;;;;;;3.60;97.50;;;;;;5043172;28;20635;-70
2022/01/26 08:36:48;;;;;;;;;;;3.60;97.50;;;;;;5040523;28;19967;-69
2022/01/26 08:39:14;;;;;;;;;;;3.60;97.50;;;;;;5052573;28;20006;-69
2022/01/26 08:41:39;;;;;;;;;;;3.60;97.50;;;;;;5040400;28;19982;-69
2022/01/26 08:44:05;;;;;;;;;;;3.60;97.40;;;;;;5029342;28;19921;-69
2022/01/26 08:46:31;;;;;;;;;;;3.60;97.50;;;;;;5043951;28;19933;-69
2022/01/26 08:48:56;;;;;;;;;;;3.70;97.50;;;;;;5043872;28;19955;-69
2022/01/26 08:51:22;;;;;;;;;;;3.60;97.40;;;;;;5043680;28;20001;-69
2022/01/26 08:53:47;;;;;;;;;;;3.70;97.50;;;;;;5045638;28;19959;-69
2022/01/26 08:56:13;;;;;;;;;;;3.60;97.40;;;;;;5052016;28;20677;-69
2022/01/26 08:58:39;;;;;;;;;;;3.60;97.40;;;;;;5043280;28;19982;-69
2022/01/26 09:01:05;;;;;;;;;;;3.70;97.60;;;;;;5025471;28;20465;-69
2022/01/26 09:03:34;;;;;;;;;;;3.70;97.50;;;;;;5040273;28;20344;-69
2022/01/26 09:06:00;;;;;;;;;;;3.60;97.50;;;;;;5041164;28;19913;-69
2022/01/26 09:08:26;;;;;;;;;;;3.70;97.50;;;;;;5042261;28;19913;-69
2022/01/26 09:10:56;;;;;;;;;;;3.70;97.50;;;;;;5044633;28;19920;-69
2022/01/26 09:13:22;;;;;;;;;;;3.70;97.50;;;;;;5027495;28;20011;-69
2022/01/26 09:15:47;;;;;;;;;;;3.70;97.50;;;;;;5034838;28;20023;-69
2022/01/26 09:18:18;;;;;;;;;;;3.70;97.50;;;;;;5030268;28;19916;-69
2022/01/26 09:20:44;;;;;;;;;;;3.70;97.50;;;;;;5049949;28;19991;-69
2022/01/26 09:23:09;;;;;;;;;;;3.60;97.40;;;;;;5049738;28;19920;-69
2022/01/26 09:25:35;;;;;;;;;;;3.70;97.50;;;;;;5031374;28;19913;-69
2022/01/26 09:28:00;;;;;;;;;;;3.70;97.50;;;;;;5046459;28;19913;-69
2022/01/26 09:30:26;;;;;;;;;;;3.70;97.50;;;;;;5048517;28;19935;-69
2022/01/26 09:32:51;;;;;;;;;;;3.70;97.50;;;;;;5051964;28;19921;-69
2022/01/26 09:35:17;;;;;;;;;;;3.70;97.40;;;;;;5044409;28;20355;-69
2022/01/26 09:37:43;;;;;;;;;;;3.70;97.40;;;;;;5030506;28;19920;-69
2022/01/26 09:40:09;;;;;;;;;;;3.70;97.40;;;;;;5045308;28;19938;-69
2022/01/26 09:42:36;;;;;;;;;;;3.70;97.40;;;;;;5053432;28;19926;-69
2022/01/26 09:45:05;;;;;;;;;;;3.70;97.50;;;;;;5044720;28;19917;-70
2022/01/26 09:47:31;;;;;;;;;;;3.70;97.50;;;;;;5047499;28;19943;-69
2022/01/26 09:49:56;;;;;;;;;;;3.70;97.50;;;;;;5044099;28;19970;-69
2022/01/26 09:52:34;;;;;;;;;;;3.70;97.40;;;;;;5051315;28;19912;-69
2022/01/26 09:54:59;;;;;;;;;;;3.70;97.40;;;;;;5042867;28;19936;-69
2022/01/26 09:57:26;;;;;;;;;;;3.70;97.50;;;;;;5055350;28;19930;-69
2022/01/26 09:59:51;;;;;;;;;;;3.70;97.50;;;;;;5045572;28;19920;-69
2022/01/26 10:02:20;;;;;;;;;;;3.70;97.40;;;;;;5046922;28;20349;-69
2022/01/26 10:04:46;;;;;;;;;;;3.70;97.40;;;;;;5048132;28;20008;-69
2022/01/26 10:09:56;;;;;;;;;;;3.70;97.40;;;;;;5048658;28;20342;-69
2022/01/26 10:15:28;;;;;;;;;;;;;;;;;;;;;
2022/01/26 10:18:27;;;;;;;;;;;3.80;97.40;;;;;;5049386;28;20257;-69
2022/01/26 10:20:54;;;;;;;;;;;3.80;97.40;;;;;;4961944;28;19918;-70
2022/01/26 10:23:20;;;;;;;;;;;3.80;97.40;;;;;;5036537;28;19980;-70
2022/01/26 10:26:02;;;;;;;;;;;3.80;97.30;;;;;;5046558;28;20583;-69
2022/01/26 10:28:43;;;;;;;;;;;3.80;97.40;;;;;;5046931;28;20014;-69
2022/01/26 10:31:12;;;;;;;;;;;3.80;97.30;;;;;;5046170;28;19916;-69
2022/01/26 10:33:38;;;;;;;;;;;3.80;97.40;;;;;;5045317;28;19939;-69
2022/01/26 10:36:03;;;;;;;;;;;3.80;97.30;;;;;;5044628;28;20498;-69
2022/01/26 10:38:29;;;;;;;;;;;3.80;97.30;;;;;;5051152;28;20614;-69
2022/01/26 10:40:54;;;;;;;;;;;3.80;97.30;;;;;;5051405;28;19916;-69
2022/01/26 10:43:20;;;;;;;;;;;3.80;97.30;;;;;;5045467;28;19920;-69
2022/01/26 10:45:56;;;;;;;;;;;;;;;;;;;;;
2022/01/26 10:49:03;;;;;;;;;;;3.80;97.30;;;;;;5045169;28;19923;-69
2022/01/26 10:53:49;;;;;;;;;;;3.80;97.40;;;;;;5045077;28;19920;-69
2022/01/26 10:56:15;;;;;;;;;;;3.80;97.40;;;;;;5045245;28;19928;-69
2022/01/26 10:58:41;;;;;;;;;;;3.80;97.40;;;;;;5045955;28;19916;-69
2022/01/26 11:01:06;;;;;;;;;;;3.80;97.40;;;;;;5062911;28;20235;-69
2022/01/26 11:03:33;;;;;;;;;;;3.80;97.40;;;;;;5027314;28;19916;-69
2022/01/26 11:06:06;;;;;;;;;;;3.80;97.30;;;;;;5057153;28;19940;-69
2022/01/26 11:08:36;;;;;;;;;;;3.80;97.70;;;;;;5042718;28;20770;-69
2022/01/26 11:11:01;;;;;;;;;;;3.80;97.40;;;;;;5047410;28;20012;-70
2022/01/26 11:13:29;;;;;;;;;;;3.80;97.40;;;;;;5042257;28;20011;-69
2022/01/26 11:16:14;;;;;;;;;;;3.90;97.50;;;;;;5050978;28;20618;-69
2022/01/26 11:18:44;;;;;;;;;;;3.90;97.40;;;;;;5040088;28;19916;-69
2022/01/26 11:21:14;;;;;;;;;;;3.90;97.40;;;;;;5045521;28;19912;-69
2022/01/26 11:23:40;;;;;;;;;;;3.90;97.40;;;;;;5037667;28;20335;-69
2022/01/26 11:26:06;;;;;;;;;;;3.80;97.40;;;;;;5044447;28;19948;-69
2022/01/26 11:28:31;;;;;;;;;;;3.90;97.40;;;;;;5045540;28;19921;-69
2022/01/26 11:31:03;;;;;;;;;;;3.90;97.50;;;;;;5049772;28;19912;-69
2022/01/26 11:33:30;;;;;;;;;;;3.80;97.40;;;;;;5047501;28;20002;-70
2022/01/26 11:35:57;;;;;;;;;;;3.80;97.40;;;;;;5044053;28;19913;-69
2022/01/26 11:47:01;;;;;;;;;;;3.80;97.50;;;;;;5044534;28;19923;-70
2022/01/26 11:49:32;;;;;;;;;;;3.90;97.40;;;;;;5041945;28;19924;-69
2022/01/26 11:51:58;;;;;;;;;;;3.90;97.40;;;;;;5045618;28;19917;-69
2022/01/26 11:54:28;;;;;;;;;;;3.90;97.40;;;;;;5046756;28;19917;-69
2022/01/26 11:56:57;;;;;;;;;;;3.90;97.40;;;;;;5045102;28;20016;-69
2022/01/26 11:59:25;;;;;;;;;;;3.90;97.40;;;;;;5049707;28;19917;-69
2022/01/26 12:01:58;;;;;;;;;;;3.90;97.40;;;;;;5044576;28;20040;-69
2022/01/26 12:04:25;;;;;;;;;;;3.90;97.50;;;;;;5024844;28;19920;-69
2022/01/26 12:06:58;;;;;;;;;;;3.90;97.40;;;;;;5043930;28;19982;-69
2022/01/26 12:09:24;;;;;;;;;;;3.90;97.40;;;;;;5049066;28;20370;-69
2022/01/26 12:11:54;;;;;;;;;;;3.90;97.50;;;;;;5028811;28;19912;-69
2022/01/26 12:14:21;;;;;;;;;;;3.90;97.40;;;;;;5038477;28;19916;-70
2022/01/26 12:16:49;;;;;;;;;;;3.90;97.50;;;;;;5044278;28;19920;-69
2022/01/26 12:35:48;;;;;;;;;;;3.90;97.50;;;;;;5049748;28;19913;-70
2022/01/26 12:38:23;;;;;;;;;;;3.90;97.50;;;;;;5044289;28;19920;-70
2022/01/26 12:43:39;;;;;;;;;;;3.90;97.50;;;;;;5043757;28;19928;-70
2022/01/26 12:46:06;;;;;;;;;;;3.90;97.50;;;;;;5047050;28;19960;-70
2022/01/26 12:48:34;;;;;;;;;;;3.90;97.50;;;;;;5048133;28;19912;-71
2022/01/26 12:51:01;;;;;;;;;;;4.00;97.50;;;;;;5055598;28;19924;-70
2022/01/26 12:53:27;;;;;;;;;;;4.00;97.50;;;;;;5048910;28;19987;-70
2022/01/26 12:55:57;;;;;;;;;;;4.00;97.50;;;;;;5046580;28;19917;-70
2022/01/26 12:58:24;;;;;;;;;;;4.00;97.50;;;;;;5047568;28;19917;-70
2022/01/26 13:00:50;;;;;;;;;;;4.00;97.40;;;;;;5046714;28;19908;-71
2022/01/26 13:03:16;;;;;;;;;;;4.00;97.50;;;;;;5046772;28;19923;-70
2022/01/26 13:05:42;;;;;;;;;;;4.00;97.50;;;;;;5054248;28;19919;-70
2022/01/26 13:08:08;;;;;;;;;;;4.00;97.50;;;;;;5045150;28;20527;-70
2022/01/26 13:10:34;;;;;;;;;;;4.00;97.40;;;;;;5048675;28;19982;-70
2022/01/26 13:13:11;;;;;;;;;;;4.00;97.40;;;;;;5046318;28;20340;-70
2022/01/26 13:15:44;;;;;;;;;;;4.00;97.50;;;;;;5052874;28;19986;-70
2022/01/26 13:18:16;;;;;;;;;;;4.00;97.50;;;;;;5042554;28;19920;-70
2022/01/26 13:21:18;;;;;;;;;;;4.00;97.50;;;;;;5048260;28;19916;-70
2022/01/26 13:23:54;;;;;;;;;;;4.00;97.50;;;;;;5044123;28;19951;-70
2022/01/26 13:26:37;;;;;;;;;;;4.00;97.50;;;;;;5052369;28;19924;-70
2022/01/26 13:30:12;;;;;;;;;;;4.00;97.50;;;;;;5043396;28;19967;-70
2022/01/26 13:32:24;;;;;;;;;;;4.00;97.50;;;;;;5036393;28;19930;-70
2022/01/26 13:37:59;;;;;;;;;;;3.90;97.50;;;;;;5047352;28;19920;-70
2022/01/26 13:53:04;;;;;;;;;;;4.00;97.50;;;;;;5047440;28;19920;-70
2022/01/26 13:58:28;;;;;;;;;;;4.00;97.50;;;;;;5049722;28;20051;-70
2022/01/26 14:01:03;;;;;;;;;;;4.00;97.50;;;;;;5045121;28;19924;-70
2022/01/26 14:03:32;;;;;;;;;;;4.00;97.50;;;;;;5029402;28;19948;-70
2022/01/26 14:05:57;;;;;;;;;;;4.00;97.50;;;;;;5045739;28;19913;-70
2022/01/26 14:08:23;;;;;;;;;;;4.00;97.50;;;;;;5049677;28;19920;-70
2022/01/26 14:10:49;;;;;;;;;;;4.00;97.50;;;;;;5047093;28;19917;-70
2022/01/26 14:13:19;;;;;;;;;;;4.00;97.50;;;;;;5047405;28;19917;-70
2022/01/26 14:15:48;;;;;;;;;;;4.00;97.50;;;;;;5042720;28;19913;-70
2022/01/26 14:20:54;;;;;;;;;;;4.00;97.50;;;;;;5046587;28;20011;-70
2022/01/26 14:26:06;;;;;;;;;;;4.00;97.60;;;;;;5047321;28;20066;-70
2022/01/26 14:28:35;;;;;;;;;;;4.00;97.60;;;;;;5048876;28;19923;-70
2022/01/26 15:30:24;;;;;;;;;;;3.90;97.70;;;;;;5044105;28;19974;-70
2022/01/26 15:53:25;;;;;;;;;;;3.90;97.70;;;;;;5047681;28;19916;-70
2022/01/26 16:20:12;;;;;;;;;;;;;;;;;;;;;
2022/01/26 16:52:30;;;;;;;;;;;3.90;97.80;;;;;;5043434;28;19919;-70
2022/01/26 18:16:23;;;;;;;;;;;3.80;97.90;;;;;;5048952;28;19921;-70
2022/01/26 18:31:45;;;;;;;;;;;3.80;97.80;;;;;;5042993;28;20016;-70
2022/01/26 18:32:37;;;;;;;;;;;3.80;97.80;;;;;;5042642;28;20061;-70
2022/01/26 18:40:44;;;;;;;;;;;3.80;97.90;;;;;;5043710;28;20007;-70
2022/01/26 18:51:06;;;;;;;;;;;3.80;97.90;;;;;;5042355;28;19919;-69
2022/01/26 18:53:32;;;;;;;;;;;3.80;97.80;;;;;;5044717;28;19925;-70
2022/01/26 18:55:57;;;;;;;;;;;3.80;97.90;;;;;;5043943;28;19967;-70
2022/01/26 18:58:23;;;;;;;;;;;3.80;97.90;;;;;;5029588;28;19917;-70
2022/01/26 19:00:48;;;;;;;;;;;3.80;97.90;;;;;;5041856;28;19994;-70
2022/01/26 19:03:14;;;;;;;;;;;3.80;97.90;;;;;;5049142;28;19916;-70
2022/01/26 19:05:40;;;;;;;;;;;3.80;97.90;;;;;;5041724;28;20007;-69
2022/01/26 19:08:06;;;;;;;;;;;3.80;97.90;;;;;;5060561;28;19912;-70
2022/01/26 19:10:31;;;;;;;;;;;3.80;97.90;;;;;;5043153;28;19924;-70
2022/01/26 19:12:57;;;;;;;;;;;3.80;98.00;;;;;;5044811;28;20648;-70
2022/01/26 19:15:27;;;;;;;;;;;3.80;97.90;;;;;;5043356;28;19916;-70
2022/01/26 19:25:45;;;;;;;;;;;3.80;97.90;;;;;;5041552;28;19920;-70
2022/01/26 19:40:00;;;;;;;;;;;3.80;97.90;;;;;;5044881;28;19966;-70
2022/01/26 19:44:13;;;;;;;;;;;3.80;97.90;;;;;;5044492;28;19916;-70
2022/01/26 19:52:20;;;;;;;;;;;3.80;97.90;;;;;;5039197;28;19974;-70
2022/01/26 19:54:49;;;;;;;;;;;3.80;97.90;;;;;;5044130;28;20313;-70
2022/01/26 19:57:15;;;;;;;;;;;3.80;97.90;;;;;;5040179;28;19916;-70
2022/01/26 19:59:41;;;;;;;;;;;3.80;97.90;;;;;;5044719;28;20003;-70
2022/01/26 20:02:07;;;;;;;;;;;3.80;97.90;;;;;;5040150;28;20427;-70
2022/01/26 20:04:33;;;;;;;;;;;3.80;98.00;;;;;;5053361;28;19909;-70
2022/01/26 20:07:05;;;;;;;;;;;3.80;98.00;;;;;;5043860;28;20003;-70
2022/01/26 20:09:39;;;;;;;;;;;3.80;98.00;;;;;;5044340;28;19944;-70
2022/01/26 20:12:08;;;;;;;;;;;3.80;98.00;;;;;;5042364;28;20472;-70
2022/01/26 20:14:36;;;;;;;;;;;3.80;97.90;;;;;;5046662;28;19924;-70
2022/01/26 20:17:07;;;;;;;;;;;3.70;98.00;;;;;;5046945;28;19913;-70
2022/01/26 20:19:34;;;;;;;;;;;3.70;97.90;;;;;;5042514;28;19917;-70
2022/01/26 20:22:00;;;;;;;;;;;3.80;98.00;;;;;;5049925;28;19917;-70
2022/01/26 20:24:26;;;;;;;;;;;3.80;98.00;;;;;;5042412;28;20281;-71
2022/01/26 20:26:53;;;;;;;;;;;3.80;98.00;;;;;;5046985;28;20259;-70
2022/01/26 20:29:22;;;;;;;;;;;3.70;97.90;;;;;;5042295;28;20618;-70
2022/01/26 20:31:48;;;;;;;;;;;3.80;98.00;;;;;;5040930;28;19916;-71
2022/01/26 20:34:15;;;;;;;;;;;3.70;98.00;;;;;;5041210;28;20294;-71
2022/01/26 20:36:43;;;;;;;;;;;3.70;97.90;;;;;;5044869;28;19917;-70
2022/01/26 20:39:09;;;;;;;;;;;3.70;98.00;;;;;;5041301;28;19928;-70
2022/01/26 20:41:35;;;;;;;;;;;3.80;98.00;;;;;;5041172;28;19945;-70
2022/01/26 20:44:00;;;;;;;;;;;3.80;98.00;;;;;;5040178;28;19924;-70
2022/01/26 20:46:26;;;;;;;;;;;3.80;98.00;;;;;;5052238;28;19970;-70
2022/01/26 20:48:52;;;;;;;;;;;3.80;98.00;;;;;;5042622;28;20396;-70
2022/01/26 20:51:18;;;;;;;;;;;3.80;98.00;;;;;;5044449;28;19956;-70
2022/01/26 20:53:44;;;;;;;;;;;3.80;98.00;;;;;;5045599;28;19927;-70
2022/01/26 20:56:10;;;;;;;;;;;3.80;97.90;;;;;;5042533;28;19912;-70
2022/01/26 20:58:35;;;;;;;;;;;3.80;98.00;;;;;;5045356;28;20292;-70
2022/01/26 21:01:04;;;;;;;;;;;3.70;98.00;;;;;;5041102;28;19912;-70
2022/01/26 21:03:30;;;;;;;;;;;3.80;98.00;;;;;;5044591;28;19989;-70
2022/01/26 21:05:55;;;;;;;;;;;3.70;98.00;;;;;;5043828;28;19917;-70
2022/01/26 21:08:22;;;;;;;;;;;3.70;98.00;;;;;;5046912;28;19917;-70
2022/01/26 21:10:51;;;;;;;;;;;3.80;98.00;;;;;;5043472;28;19931;-70
2022/01/26 21:13:17;;;;;;;;;;;3.70;98.00;;;;;;5046813;28;19919;-70
2022/01/26 21:15:44;;;;;;;;;;;3.70;98.00;;;;;;5044379;28;19925;-70
2022/01/26 21:18:09;;;;;;;;;;;3.70;98.00;;;;;;5048308;28;19920;-70
2022/01/26 21:20:37;;;;;;;;;;;3.70;97.90;;;;;;5040926;28;19917;-70
2022/01/26 21:23:04;;;;;;;;;;;3.70;97.90;;;;;;5045518;28;19943;-70
2022/01/26 21:25:29;;;;;;;;;;;3.70;98.00;;;;;;5042859;28;20000;-70
2022/01/26 21:27:55;;;;;;;;;;;3.70;98.00;;;;;;5044046;28;20011;-70
2022/01/26 21:30:20;;;;;;;;;;;3.70;97.90;;;;;;5051743;28;19960;-70
2022/01/26 21:32:46;;;;;;;;;;;3.70;97.90;;;;;;5047104;28;19959;-70
2022/01/26 21:35:12;;;;;;;;;;;3.70;98.00;;;;;;5042230;28;19924;-70
2022/01/26 21:37:37;;;;;;;;;;;3.70;97.90;;;;;;5047659;28;20007;-70